sensor_id;sensor_type;location;lat;lon;timestamp;P1;durP1;ratioP1;P2;durP2;ratioP2
19087;SDS011;9676;50.916;13.352;2023-12-20T00:01:54;10.90;;;10.00;;
19087;SDS011;9676;50.916;13.352;2023-12-20T00:04:43;11.17;;;10.27;;
19087;SDS011;9676;50.916;13.352;2023-12-20T00:07:33;11.23;;;10.23;;
19087;SDS011;9676;50.916;13.352;2023-12-20T00:10:23;10.90;;;10.00;;
19087;SDS011;9676;50.916;13.352;2023-12-20T00:13:12;11.07;;;10.17;;
19087;SDS011;9676;50.916;13.352;2023-12-20T00:16:02;10.90;;;10.00;;
19087;SDS011;9676;50.916;13.352;2023-12-20T00:18:53;10.83;;;9.90;;
19087;SDS011;9676;50.916;13.352;2023-12-20T00:21:43;11.50;;;10.60;;
19087;SDS011;9676;50.916;13.352;2023-12-20T00:24:32;11.00;;;10.10;;
19087;SDS011;9676;50.916;13.352;2023-12-20T00:27:21;11.00;;;10.00;;
19087;SDS011;9676;50.916;13.352;2023-12-20T00:30:11;10.93;;;10.03;;
19087;SDS011;9676;50.916;13.352;2023-12-20T00:33:01;11.33;;;10.33;;
19087;SDS011;9676;50.916;13.352;2023-12-20T00:35:53;10.87;;;9.97;;
19087;SDS011;9676;50.916;13.352;2023-12-20T00:38:42;10.50;;;9.70;;
19087;SDS011;9676;50.916;13.352;2023-12-20T00:41:31;10.33;;;9.50;;
19087;SDS011;9676;50.916;13.352;2023-12-20T00:44:21;10.50;;;9.60;;
19087;SDS011;9676;50.916;13.352;2023-12-20T00:47:10;10.80;;;9.90;;
19087;SDS011;9676;50.916;13.352;2023-12-20T00:50:00;10.30;;;9.50;;
19087;SDS011;9676;50.916;13.352;2023-12-20T00:52:52;10.57;;;9.70;;
19087;SDS011;9676;50.916;13.352;2023-12-20T00:55:42;10.37;;;9.57;;
19087;SDS011;9676;50.916;13.352;2023-12-20T00:58:31;10.43;;;9.53;;
19087;SDS011;9676;50.916;13.352;2023-12-20T01:01:21;10.10;;;9.30;;
19087;SDS011;9676;50.916;13.352;2023-12-20T01:04:10;10.50;;;9.70;;
19087;SDS011;9676;50.916;13.352;2023-12-20T01:07:00;10.23;;;9.43;;
19087;SDS011;9676;50.916;13.352;2023-12-20T01:09:51;10.10;;;9.30;;
19087;SDS011;9676;50.916;13.352;2023-12-20T01:12:40;10.03;;;9.30;;
19087;SDS011;9676;50.916;13.352;2023-12-20T01:15:29;10.67;;;9.87;;
19087;SDS011;9676;50.916;13.352;2023-12-20T01:18:19;10.40;;;9.60;;
19087;SDS011;9676;50.916;13.352;2023-12-20T01:21:08;10.10;;;9.30;;
19087;SDS011;9676;50.916;13.352;2023-12-20T01:23:58;10.03;;;9.33;;
19087;SDS011;9676;50.916;13.352;2023-12-20T01:26:48;10.03;;;9.23;;
19087;SDS011;9676;50.916;13.352;2023-12-20T01:29:38;10.20;;;9.40;;
19087;SDS011;9676;50.916;13.352;2023-12-20T01:32:27;10.20;;;9.40;;
19087;SDS011;9676;50.916;13.352;2023-12-20T01:35:17;10.27;;;9.47;;
19087;SDS011;9676;50.916;13.352;2023-12-20T01:38:06;10.03;;;9.30;;
19087;SDS011;9676;50.916;13.352;2023-12-20T01:40:56;10.17;;;9.37;;
19087;SDS011;9676;50.916;13.352;2023-12-20T01:43:46;10.43;;;9.63;;
19087;SDS011;9676;50.916;13.352;2023-12-20T01:46:38;10.33;;;9.53;;
19087;SDS011;9676;50.916;13.352;2023-12-20T01:49:28;10.67;;;9.87;;
19087;SDS011;9676;50.916;13.352;2023-12-20T01:52:18;9.90;;;9.20;;
19087;SDS011;9676;50.916;13.352;2023-12-20T01:55:08;10.20;;;9.50;;
19087;SDS011;9676;50.916;13.352;2023-12-20T01:58:01;9.50;;;8.90;;
19087;SDS011;9676;50.916;13.352;2023-12-20T02:00:52;10.40;;;9.60;;
19087;SDS011;9676;50.916;13.352;2023-12-20T02:03:43;10.57;;;9.77;;
19087;SDS011;9676;50.916;13.352;2023-12-20T02:06:32;10.03;;;9.33;;
19087;SDS011;9676;50.916;13.352;2023-12-20T02:09:23;9.70;;;9.00;;
19087;SDS011;9676;50.916;13.352;2023-12-20T02:12:12;9.70;;;9.00;;
19087;SDS011;9676;50.916;13.352;2023-12-20T02:15:02;9.70;;;9.00;;
19087;SDS011;9676;50.916;13.352;2023-12-20T02:17:53;9.47;;;8.87;;
19087;SDS011;9676;50.916;13.352;2023-12-20T02:20:43;9.83;;;9.13;;
19087;SDS011;9676;50.916;13.352;2023-12-20T02:23:34;9.50;;;8.90;;
19087;SDS011;9676;50.916;13.352;2023-12-20T02:26:23;9.50;;;8.90;;
19087;SDS011;9676;50.916;13.352;2023-12-20T02:29:13;9.80;;;9.10;;
19087;SDS011;9676;50.916;13.352;2023-12-20T02:32:02;10.03;;;9.33;;
19087;SDS011;9676;50.916;13.352;2023-12-20T02:34:52;9.77;;;9.10;;
19087;SDS011;9676;50.916;13.352;2023-12-20T02:37:42;9.50;;;8.90;;
19087;SDS011;9676;50.916;13.352;2023-12-20T02:40:33;9.40;;;8.80;;
19087;SDS011;9676;50.916;13.352;2023-12-20T02:43:22;9.37;;;8.77;;
19087;SDS011;9676;50.916;13.352;2023-12-20T02:46:12;9.43;;;8.83;;
19087;SDS011;9676;50.916;13.352;2023-12-20T02:49:05;9.43;;;8.83;;
19087;SDS011;9676;50.916;13.352;2023-12-20T02:51:55;9.60;;;8.90;;
19087;SDS011;9676;50.916;13.352;2023-12-20T02:54:44;9.37;;;8.77;;
19087;SDS011;9676;50.916;13.352;2023-12-20T02:57:35;9.40;;;8.80;;
19087;SDS011;9676;50.916;13.352;2023-12-20T03:00:29;9.60;;;8.90;;
19087;SDS011;9676;50.916;13.352;2023-12-20T03:03:18;9.40;;;8.80;;
19087;SDS011;9676;50.916;13.352;2023-12-20T03:06:08;9.50;;;8.90;;
19087;SDS011;9676;50.916;13.352;2023-12-20T03:08:57;9.53;;;8.90;;
19087;SDS011;9676;50.916;13.352;2023-12-20T03:11:46;9.67;;;8.97;;
19087;SDS011;9676;50.916;13.352;2023-12-20T03:14:37;9.53;;;8.93;;
19087;SDS011;9676;50.916;13.352;2023-12-20T03:17:27;9.70;;;9.00;;
19087;SDS011;9676;50.916;13.352;2023-12-20T03:20:16;9.87;;;9.17;;
19087;SDS011;9676;50.916;13.352;2023-12-20T03:23:05;9.40;;;8.80;;
19087;SDS011;9676;50.916;13.352;2023-12-20T03:25:55;9.50;;;8.80;;
19087;SDS011;9676;50.916;13.352;2023-12-20T03:28:44;9.40;;;8.80;;
19087;SDS011;9676;50.916;13.352;2023-12-20T03:31:35;9.37;;;8.77;;
19087;SDS011;9676;50.916;13.352;2023-12-20T03:34:24;9.40;;;8.80;;
19087;SDS011;9676;50.916;13.352;2023-12-20T03:37:13;9.70;;;9.00;;
19087;SDS011;9676;50.916;13.352;2023-12-20T03:40:03;9.37;;;8.77;;
19087;SDS011;9676;50.916;13.352;2023-12-20T03:42:54;9.60;;;9.00;;
19087;SDS011;9676;50.916;13.352;2023-12-20T03:45:44;9.87;;;9.17;;
19087;SDS011;9676;50.916;13.352;2023-12-20T03:48:35;9.40;;;8.80;;
19087;SDS011;9676;50.916;13.352;2023-12-20T03:51:24;9.60;;;8.97;;
19087;SDS011;9676;50.916;13.352;2023-12-20T03:54:13;9.30;;;8.70;;
19087;SDS011;9676;50.916;13.352;2023-12-20T03:57:03;9.17;;;8.67;;
19087;SDS011;9676;50.916;13.352;2023-12-20T03:59:53;9.50;;;8.90;;
19087;SDS011;9676;50.916;13.352;2023-12-20T04:02:42;9.30;;;8.70;;
19087;SDS011;9676;50.916;13.352;2023-12-20T04:05:33;9.50;;;8.90;;
19087;SDS011;9676;50.916;13.352;2023-12-20T04:08:22;9.50;;;8.90;;
19087;SDS011;9676;50.916;13.352;2023-12-20T04:11:12;9.40;;;8.80;;
19087;SDS011;9676;50.916;13.352;2023-12-20T04:14:01;9.57;;;8.97;;
19087;SDS011;9676;50.916;13.352;2023-12-20T04:16:52;9.60;;;9.00;;
19087;SDS011;9676;50.916;13.352;2023-12-20T04:19:42;9.53;;;8.90;;
19087;SDS011;9676;50.916;13.352;2023-12-20T04:22:32;9.67;;;9.03;;
19087;SDS011;9676;50.916;13.352;2023-12-20T04:25:22;9.60;;;8.90;;
19087;SDS011;9676;50.916;13.352;2023-12-20T04:28:11;9.30;;;8.70;;
19087;SDS011;9676;50.916;13.352;2023-12-20T04:31:01;9.50;;;8.90;;
19087;SDS011;9676;50.916;13.352;2023-12-20T04:33:50;9.60;;;9.00;;
19087;SDS011;9676;50.916;13.352;2023-12-20T04:36:40;9.50;;;8.90;;
19087;SDS011;9676;50.916;13.352;2023-12-20T04:39:31;9.50;;;8.90;;
19087;SDS011;9676;50.916;13.352;2023-12-20T04:42:20;9.60;;;9.00;;
19087;SDS011;9676;50.916;13.352;2023-12-20T04:45:09;9.30;;;8.70;;
19087;SDS011;9676;50.916;13.352;2023-12-20T04:48:01;9.80;;;9.10;;
19087;SDS011;9676;50.916;13.352;2023-12-20T04:50:51;9.67;;;9.00;;
19087;SDS011;9676;50.916;13.352;2023-12-20T04:53:41;9.47;;;8.87;;
19087;SDS011;9676;50.916;13.352;2023-12-20T04:56:31;9.50;;;8.90;;
19087;SDS011;9676;50.916;13.352;2023-12-20T04:59:21;9.40;;;8.80;;
19087;SDS011;9676;50.916;13.352;2023-12-20T05:02:10;9.37;;;8.77;;
19087;SDS011;9676;50.916;13.352;2023-12-20T05:04:59;9.50;;;8.90;;
19087;SDS011;9676;50.916;13.352;2023-12-20T05:07:49;9.40;;;8.80;;
19087;SDS011;9676;50.916;13.352;2023-12-20T05:10:40;9.63;;;9.00;;
19087;SDS011;9676;50.916;13.352;2023-12-20T05:13:31;9.40;;;8.80;;
19087;SDS011;9676;50.916;13.352;2023-12-20T05:16:31;9.30;;;8.70;;
19087;SDS011;9676;50.916;13.352;2023-12-20T05:19:20;9.43;;;8.83;;
19087;SDS011;9676;50.916;13.352;2023-12-20T05:22:10;9.47;;;8.87;;
19087;SDS011;9676;50.916;13.352;2023-12-20T05:25:00;9.23;;;8.70;;
19087;SDS011;9676;50.916;13.352;2023-12-20T05:27:50;9.50;;;8.90;;
19087;SDS011;9676;50.916;13.352;2023-12-20T05:30:40;9.50;;;8.90;;
19087;SDS011;9676;50.916;13.352;2023-12-20T05:33:30;9.40;;;8.80;;
19087;SDS011;9676;50.916;13.352;2023-12-20T05:36:20;9.70;;;9.00;;
19087;SDS011;9676;50.916;13.352;2023-12-20T05:39:09;9.40;;;8.80;;
19087;SDS011;9676;50.916;13.352;2023-12-20T05:41:59;9.63;;;8.93;;
19087;SDS011;9676;50.916;13.352;2023-12-20T05:44:48;9.60;;;8.90;;
19087;SDS011;9676;50.916;13.352;2023-12-20T05:47:42;9.30;;;8.70;;
19087;SDS011;9676;50.916;13.352;2023-12-20T05:50:31;9.30;;;8.70;;
19087;SDS011;9676;50.916;13.352;2023-12-20T05:53:22;9.50;;;8.90;;
19087;SDS011;9676;50.916;13.352;2023-12-20T05:56:11;9.40;;;8.80;;
19087;SDS011;9676;50.916;13.352;2023-12-20T05:59:01;9.30;;;8.70;;
19087;SDS011;9676;50.916;13.352;2023-12-20T06:01:50;9.50;;;8.90;;
19087;SDS011;9676;50.916;13.352;2023-12-20T06:04:43;9.40;;;8.80;;
19087;SDS011;9676;50.916;13.352;2023-12-20T06:07:32;9.40;;;8.80;;
19087;SDS011;9676;50.916;13.352;2023-12-20T06:10:21;9.60;;;8.90;;
19087;SDS011;9676;50.916;13.352;2023-12-20T06:13:11;9.30;;;8.70;;
19087;SDS011;9676;50.916;13.352;2023-12-20T06:16:01;9.50;;;8.90;;
19087;SDS011;9676;50.916;13.352;2023-12-20T06:18:53;9.53;;;8.83;;
19087;SDS011;9676;50.916;13.352;2023-12-20T06:21:44;9.10;;;8.60;;
19087;SDS011;9676;50.916;13.352;2023-12-20T06:24:33;9.30;;;8.70;;
19087;SDS011;9676;50.916;13.352;2023-12-20T06:27:23;9.40;;;8.80;;
19087;SDS011;9676;50.916;13.352;2023-12-20T06:30:12;9.50;;;8.90;;
19087;SDS011;9676;50.916;13.352;2023-12-20T06:33:02;9.60;;;9.00;;
19087;SDS011;9676;50.916;13.352;2023-12-20T06:35:52;9.60;;;9.00;;
19087;SDS011;9676;50.916;13.352;2023-12-20T06:38:42;9.40;;;8.80;;
19087;SDS011;9676;50.916;13.352;2023-12-20T06:41:32;11.60;;;10.60;;
19087;SDS011;9676;50.916;13.352;2023-12-20T06:44:21;10.77;;;9.87;;
19087;SDS011;9676;50.916;13.352;2023-12-20T06:47:11;11.10;;;10.10;;
19087;SDS011;9676;50.916;13.352;2023-12-20T06:50:01;10.50;;;9.70;;
19087;SDS011;9676;50.916;13.352;2023-12-20T06:52:51;10.50;;;9.70;;
19087;SDS011;9676;50.916;13.352;2023-12-20T06:55:41;10.00;;;9.30;;
19087;SDS011;9676;50.916;13.352;2023-12-20T06:58:31;10.17;;;9.37;;
19087;SDS011;9676;50.916;13.352;2023-12-20T07:01:20;9.70;;;9.00;;
19087;SDS011;9676;50.916;13.352;2023-12-20T07:04:10;10.00;;;9.30;;
19087;SDS011;9676;50.916;13.352;2023-12-20T07:06:59;9.87;;;9.07;;
19087;SDS011;9676;50.916;13.352;2023-12-20T07:09:49;10.17;;;9.37;;
19087;SDS011;9676;50.916;13.352;2023-12-20T07:12:40;10.33;;;9.53;;
19087;SDS011;9676;50.916;13.352;2023-12-20T07:15:29;10.43;;;9.53;;
19087;SDS011;9676;50.916;13.352;2023-12-20T07:18:18;10.20;;;9.40;;
19087;SDS011;9676;50.916;13.352;2023-12-20T07:21:08;10.47;;;9.67;;
19087;SDS011;9676;50.916;13.352;2023-12-20T07:23:58;10.47;;;9.57;;
19087;SDS011;9676;50.916;13.352;2023-12-20T07:26:48;10.70;;;9.73;;
19087;SDS011;9676;50.916;13.352;2023-12-20T07:29:39;10.50;;;9.53;;
19087;SDS011;9676;50.916;13.352;2023-12-20T07:32:28;9.90;;;9.20;;
19087;SDS011;9676;50.916;13.352;2023-12-20T07:35:19;10.13;;;9.43;;
19087;SDS011;9676;50.916;13.352;2023-12-20T07:38:09;10.10;;;9.40;;
19087;SDS011;9676;50.916;13.352;2023-12-20T07:40:59;10.20;;;9.40;;
19087;SDS011;9676;50.916;13.352;2023-12-20T07:43:49;10.53;;;9.63;;
19087;SDS011;9676;50.916;13.352;2023-12-20T07:46:40;10.40;;;9.50;;
19087;SDS011;9676;50.916;13.352;2023-12-20T07:49:30;10.70;;;9.80;;
19087;SDS011;9676;50.916;13.352;2023-12-20T07:52:20;10.33;;;9.53;;
19087;SDS011;9676;50.916;13.352;2023-12-20T07:55:10;10.60;;;9.70;;
19087;SDS011;9676;50.916;13.352;2023-12-20T07:58:00;10.43;;;9.63;;
19087;SDS011;9676;50.916;13.352;2023-12-20T08:00:49;10.40;;;9.60;;
19087;SDS011;9676;50.916;13.352;2023-12-20T08:03:40;10.20;;;9.40;;
19087;SDS011;9676;50.916;13.352;2023-12-20T08:06:30;10.80;;;9.90;;
19087;SDS011;9676;50.916;13.352;2023-12-20T08:09:20;10.27;;;9.47;;
19087;SDS011;9676;50.916;13.352;2023-12-20T08:12:10;10.57;;;9.67;;
19087;SDS011;9676;50.916;13.352;2023-12-20T08:15:01;10.30;;;9.50;;
19087;SDS011;9676;50.916;13.352;2023-12-20T08:17:51;10.40;;;9.50;;
19087;SDS011;9676;50.916;13.352;2023-12-20T08:20:42;10.20;;;9.40;;
19087;SDS011;9676;50.916;13.352;2023-12-20T08:23:32;10.37;;;9.50;;
19087;SDS011;9676;50.916;13.352;2023-12-20T08:26:21;9.80;;;9.10;;
19087;SDS011;9676;50.916;13.352;2023-12-20T08:29:12;10.13;;;9.30;;
19087;SDS011;9676;50.916;13.352;2023-12-20T08:32:01;9.77;;;9.07;;
19087;SDS011;9676;50.916;13.352;2023-12-20T08:34:52;9.93;;;9.07;;
19087;SDS011;9676;50.916;13.352;2023-12-20T08:37:43;10.30;;;9.50;;
19087;SDS011;9676;50.916;13.352;2023-12-20T08:40:32;9.73;;;9.03;;
19087;SDS011;9676;50.916;13.352;2023-12-20T08:43:22;10.03;;;9.23;;
19087;SDS011;9676;50.916;13.352;2023-12-20T08:46:13;9.47;;;8.77;;
19087;SDS011;9676;50.916;13.352;2023-12-20T08:49:03;10.03;;;9.23;;
19087;SDS011;9676;50.916;13.352;2023-12-20T08:51:53;9.47;;;8.77;;
19087;SDS011;9676;50.916;13.352;2023-12-20T08:54:43;9.63;;;8.93;;
19087;SDS011;9676;50.916;13.352;2023-12-20T08:57:33;10.00;;;9.10;;
19087;SDS011;9676;50.916;13.352;2023-12-20T09:00:23;9.60;;;8.90;;
19087;SDS011;9676;50.916;13.352;2023-12-20T09:03:15;10.10;;;9.30;;
19087;SDS011;9676;50.916;13.352;2023-12-20T09:06:04;9.93;;;9.07;;
19087;SDS011;9676;50.916;13.352;2023-12-20T09:08:54;9.80;;;9.00;;
19087;SDS011;9676;50.916;13.352;2023-12-20T09:11:45;10.03;;;9.23;;
19087;SDS011;9676;50.916;13.352;2023-12-20T09:14:35;9.80;;;9.00;;
19087;SDS011;9676;50.916;13.352;2023-12-20T09:17:25;10.50;;;9.50;;
19087;SDS011;9676;50.916;13.352;2023-12-20T09:20:14;9.60;;;8.90;;
19087;SDS011;9676;50.916;13.352;2023-12-20T09:23:04;10.10;;;9.23;;
19087;SDS011;9676;50.916;13.352;2023-12-20T09:25:53;9.70;;;8.90;;
19087;SDS011;9676;50.916;13.352;2023-12-20T09:28:46;9.73;;;8.93;;
19087;SDS011;9676;50.916;13.352;2023-12-20T09:31:36;9.60;;;8.80;;
19087;SDS011;9676;50.916;13.352;2023-12-20T09:34:25;9.80;;;9.00;;
19087;SDS011;9676;50.916;13.352;2023-12-20T09:37:15;9.73;;;9.00;;
19087;SDS011;9676;50.916;13.352;2023-12-20T09:40:05;10.03;;;9.23;;
19087;SDS011;9676;50.916;13.352;2023-12-20T09:42:58;9.73;;;8.83;;
19087;SDS011;9676;50.916;13.352;2023-12-20T09:45:54;9.90;;;9.00;;
19087;SDS011;9676;50.916;13.352;2023-12-20T09:48:50;9.70;;;8.90;;
19087;SDS011;9676;50.916;13.352;2023-12-20T09:51:40;9.93;;;9.13;;
19087;SDS011;9676;50.916;13.352;2023-12-20T09:54:30;9.57;;;8.77;;
19087;SDS011;9676;50.916;13.352;2023-12-20T09:57:19;9.87;;;9.07;;
19087;SDS011;9676;50.916;13.352;2023-12-20T10:00:10;10.00;;;9.00;;
19087;SDS011;9676;50.916;13.352;2023-12-20T10:03:02;11.73;;;9.33;;
19087;SDS011;9676;50.916;13.352;2023-12-20T10:05:56;9.60;;;8.80;;
19087;SDS011;9676;50.916;13.352;2023-12-20T10:08:46;9.80;;;9.00;;
19087;SDS011;9676;50.916;13.352;2023-12-20T10:11:36;9.93;;;9.13;;
19087;SDS011;9676;50.916;13.352;2023-12-20T10:14:26;10.50;;;9.43;;
19087;SDS011;9676;50.916;13.352;2023-12-20T10:17:15;10.10;;;9.20;;
19087;SDS011;9676;50.916;13.352;2023-12-20T10:20:07;9.90;;;9.00;;
19087;SDS011;9676;50.916;13.352;2023-12-20T10:22:58;9.80;;;9.00;;
19087;SDS011;9676;50.916;13.352;2023-12-20T10:25:58;10.37;;;9.27;;
19087;SDS011;9676;50.916;13.352;2023-12-20T10:28:50;10.30;;;9.30;;
19087;SDS011;9676;50.916;13.352;2023-12-20T10:31:40;10.10;;;9.20;;
19087;SDS011;9676;50.916;13.352;2023-12-20T10:34:32;10.43;;;9.53;;
19087;SDS011;9676;50.916;13.352;2023-12-20T10:37:23;9.97;;;9.07;;
19087;SDS011;9676;50.916;13.352;2023-12-20T10:40:12;9.93;;;9.10;;
19087;SDS011;9676;50.916;13.352;2023-12-20T10:43:02;10.03;;;9.03;;
19087;SDS011;9676;50.916;13.352;2023-12-20T10:45:53;10.17;;;9.27;;
19087;SDS011;9676;50.916;13.352;2023-12-20T10:48:42;9.80;;;9.00;;
19087;SDS011;9676;50.916;13.352;2023-12-20T10:51:34;9.90;;;9.10;;
19087;SDS011;9676;50.916;13.352;2023-12-20T10:54:25;10.50;;;9.70;;
19087;SDS011;9676;50.916;13.352;2023-12-20T10:57:14;9.83;;;9.03;;
19087;SDS011;9676;50.916;13.352;2023-12-20T11:00:07;10.13;;;9.33;;
19087;SDS011;9676;50.916;13.352;2023-12-20T11:03:00;9.60;;;8.90;;
19087;SDS011;9676;50.916;13.352;2023-12-20T11:05:52;10.63;;;9.73;;
19087;SDS011;9676;50.916;13.352;2023-12-20T11:08:50;10.47;;;9.50;;
19087;SDS011;9676;50.916;13.352;2023-12-20T11:11:59;9.87;;;9.07;;
19087;SDS011;9676;50.916;13.352;2023-12-20T11:14:55;10.10;;;9.30;;
19087;SDS011;9676;50.916;13.352;2023-12-20T11:17:54;10.17;;;9.30;;
19087;SDS011;9676;50.916;13.352;2023-12-20T11:20:44;10.10;;;9.30;;
19087;SDS011;9676;50.916;13.352;2023-12-20T11:23:34;10.27;;;9.37;;
19087;SDS011;9676;50.916;13.352;2023-12-20T11:26:26;10.07;;;9.07;;
19087;SDS011;9676;50.916;13.352;2023-12-20T11:29:30;10.10;;;9.30;;
19087;SDS011;9676;50.916;13.352;2023-12-20T11:32:30;9.90;;;9.10;;
19087;SDS011;9676;50.916;13.352;2023-12-20T11:35:19;10.10;;;9.20;;
19087;SDS011;9676;50.916;13.352;2023-12-20T11:38:12;10.27;;;9.37;;
19087;SDS011;9676;50.916;13.352;2023-12-20T11:41:04;10.20;;;9.40;;
19087;SDS011;9676;50.916;13.352;2023-12-20T11:43:57;12.77;;;9.70;;
19087;SDS011;9676;50.916;13.352;2023-12-20T11:46:49;10.20;;;9.30;;
19087;SDS011;9676;50.916;13.352;2023-12-20T11:49:39;10.57;;;9.67;;
19087;SDS011;9676;50.916;13.352;2023-12-20T11:52:28;10.90;;;9.60;;
19087;SDS011;9676;50.916;13.352;2023-12-20T11:55:18;11.03;;;10.03;;
19087;SDS011;9676;50.916;13.352;2023-12-20T11:58:07;10.40;;;9.50;;
19087;SDS011;9676;50.916;13.352;2023-12-20T12:00:57;9.93;;;9.23;;
19087;SDS011;9676;50.916;13.352;2023-12-20T12:03:48;10.27;;;9.40;;
19087;SDS011;9676;50.916;13.352;2023-12-20T12:06:51;10.70;;;9.70;;
19087;SDS011;9676;50.916;13.352;2023-12-20T12:09:42;10.10;;;9.30;;
19087;SDS011;9676;50.916;13.352;2023-12-20T12:12:31;10.30;;;9.40;;
19087;SDS011;9676;50.916;13.352;2023-12-20T12:15:21;11.30;;;10.10;;
19087;SDS011;9676;50.916;13.352;2023-12-20T12:18:10;11.03;;;10.00;;
19087;SDS011;9676;50.916;13.352;2023-12-20T12:21:05;10.80;;;9.90;;
19087;SDS011;9676;50.916;13.352;2023-12-20T12:24:07;10.63;;;9.73;;
19087;SDS011;9676;50.916;13.352;2023-12-20T12:26:57;11.17;;;10.17;;
19087;SDS011;9676;50.916;13.352;2023-12-20T12:30:00;10.60;;;9.70;;
19087;SDS011;9676;50.916;13.352;2023-12-20T12:32:51;10.20;;;9.40;;
19087;SDS011;9676;50.916;13.352;2023-12-20T12:35:41;10.23;;;9.43;;
19087;SDS011;9676;50.916;13.352;2023-12-20T12:38:32;10.30;;;9.40;;
19087;SDS011;9676;50.916;13.352;2023-12-20T12:41:22;10.40;;;9.50;;
19087;SDS011;9676;50.916;13.352;2023-12-20T12:44:11;10.17;;;9.37;;
19087;SDS011;9676;50.916;13.352;2023-12-20T12:47:04;11.10;;;9.60;;
19087;SDS011;9676;50.916;13.352;2023-12-20T12:49:54;10.70;;;9.67;;
19087;SDS011;9676;50.916;13.352;2023-12-20T12:52:44;10.50;;;9.60;;
19087;SDS011;9676;50.916;13.352;2023-12-20T12:55:34;10.17;;;9.27;;
19087;SDS011;9676;50.916;13.352;2023-12-20T12:58:24;10.93;;;9.87;;
19087;SDS011;9676;50.916;13.352;2023-12-20T13:01:14;10.27;;;9.37;;
19087;SDS011;9676;50.916;13.352;2023-12-20T13:04:03;10.53;;;9.63;;
19087;SDS011;9676;50.916;13.352;2023-12-20T13:06:58;10.40;;;9.40;;
19087;SDS011;9676;50.916;13.352;2023-12-20T13:09:47;10.00;;;9.20;;
19087;SDS011;9676;50.916;13.352;2023-12-20T13:12:38;10.20;;;9.30;;
19087;SDS011;9676;50.916;13.352;2023-12-20T13:15:27;9.80;;;9.07;;
19087;SDS011;9676;50.916;13.352;2023-12-20T13:18:17;10.43;;;9.53;;
19087;SDS011;9676;50.916;13.352;2023-12-20T13:21:07;11.10;;;10.07;;
19087;SDS011;9676;50.916;13.352;2023-12-20T13:23:57;10.53;;;9.53;;
19087;SDS011;9676;50.916;13.352;2023-12-20T13:26:46;10.13;;;9.33;;
19087;SDS011;9676;50.916;13.352;2023-12-20T13:29:37;10.33;;;9.43;;
19087;SDS011;9676;50.916;13.352;2023-12-20T13:32:27;10.50;;;9.60;;
19087;SDS011;9676;50.916;13.352;2023-12-20T13:35:17;10.50;;;9.43;;
19087;SDS011;9676;50.916;13.352;2023-12-20T13:38:08;10.43;;;9.53;;
19087;SDS011;9676;50.916;13.352;2023-12-20T13:40:57;10.43;;;9.57;;
19087;SDS011;9676;50.916;13.352;2023-12-20T13:43:46;10.40;;;9.50;;
19087;SDS011;9676;50.916;13.352;2023-12-20T13:46:37;10.80;;;9.80;;
19087;SDS011;9676;50.916;13.352;2023-12-20T13:49:27;10.33;;;9.53;;
19087;SDS011;9676;50.916;13.352;2023-12-20T13:52:16;10.40;;;9.60;;
19087;SDS011;9676;50.916;13.352;2023-12-20T13:55:06;10.30;;;9.50;;
19087;SDS011;9676;50.916;13.352;2023-12-20T13:57:56;9.93;;;9.23;;
19087;SDS011;9676;50.916;13.352;2023-12-20T14:00:46;10.20;;;9.20;;
19087;SDS011;9676;50.916;13.352;2023-12-20T14:03:37;9.97;;;9.20;;
19087;SDS011;9676;50.916;13.352;2023-12-20T14:06:27;10.00;;;9.20;;
19087;SDS011;9676;50.916;13.352;2023-12-20T14:09:17;9.97;;;9.10;;
19087;SDS011;9676;50.916;13.352;2023-12-20T14:12:07;10.37;;;9.37;;
19087;SDS011;9676;50.916;13.352;2023-12-20T14:14:57;10.33;;;9.33;;
19087;SDS011;9676;50.916;13.352;2023-12-20T14:17:46;10.70;;;9.83;;
19087;SDS011;9676;50.916;13.352;2023-12-20T14:20:37;10.33;;;9.50;;
19087;SDS011;9676;50.916;13.352;2023-12-20T14:23:29;10.30;;;9.37;;
19087;SDS011;9676;50.916;13.352;2023-12-20T14:26:18;10.30;;;9.40;;
19087;SDS011;9676;50.916;13.352;2023-12-20T14:29:08;10.33;;;9.53;;
19087;SDS011;9676;50.916;13.352;2023-12-20T14:31:57;10.57;;;9.67;;
19087;SDS011;9676;50.916;13.352;2023-12-20T14:34:49;10.00;;;9.30;;
19087;SDS011;9676;50.916;13.352;2023-12-20T14:37:39;11.23;;;10.23;;
19087;SDS011;9676;50.916;13.352;2023-12-20T14:40:29;10.33;;;9.43;;
19087;SDS011;9676;50.916;13.352;2023-12-20T14:43:19;10.10;;;9.20;;
19087;SDS011;9676;50.916;13.352;2023-12-20T14:46:09;10.17;;;9.30;;
19087;SDS011;9676;50.916;13.352;2023-12-20T14:48:59;10.30;;;9.40;;
19087;SDS011;9676;50.916;13.352;2023-12-20T14:51:49;10.10;;;9.30;;
19087;SDS011;9676;50.916;13.352;2023-12-20T14:54:40;9.70;;;9.00;;
19087;SDS011;9676;50.916;13.352;2023-12-20T14:57:30;10.40;;;9.50;;
19087;SDS011;9676;50.916;13.352;2023-12-20T15:00:21;10.37;;;9.57;;
19087;SDS011;9676;50.916;13.352;2023-12-20T15:03:10;10.00;;;9.20;;
19087;SDS011;9676;50.916;13.352;2023-12-20T15:06:00;10.40;;;9.50;;
19087;SDS011;9676;50.916;13.352;2023-12-20T15:08:49;10.17;;;9.37;;
19087;SDS011;9676;50.916;13.352;2023-12-20T15:11:40;10.37;;;9.47;;
19087;SDS011;9676;50.916;13.352;2023-12-20T15:14:30;9.93;;;9.23;;
19087;SDS011;9676;50.916;13.352;2023-12-20T15:17:19;10.23;;;9.43;;
19087;SDS011;9676;50.916;13.352;2023-12-20T15:20:09;9.93;;;9.13;;
19087;SDS011;9676;50.916;13.352;2023-12-20T15:22:59;10.70;;;9.60;;
19087;SDS011;9676;50.916;13.352;2023-12-20T15:25:53;10.30;;;9.50;;
19087;SDS011;9676;50.916;13.352;2023-12-20T15:28:44;10.10;;;9.30;;
19087;SDS011;9676;50.916;13.352;2023-12-20T15:31:33;9.97;;;9.17;;
19087;SDS011;9676;50.916;13.352;2023-12-20T15:34:24;9.90;;;9.10;;
19087;SDS011;9676;50.916;13.352;2023-12-20T15:37:13;11.70;;;8.90;;
19087;SDS011;9676;50.916;13.352;2023-12-20T15:40:03;10.13;;;9.33;;
19087;SDS011;9676;50.916;13.352;2023-12-20T15:42:53;10.40;;;9.60;;
19087;SDS011;9676;50.916;13.352;2023-12-20T15:45:44;10.37;;;9.37;;
19087;SDS011;9676;50.916;13.352;2023-12-20T15:48:34;10.50;;;9.60;;
19087;SDS011;9676;50.916;13.352;2023-12-20T15:51:23;10.03;;;9.23;;
19087;SDS011;9676;50.916;13.352;2023-12-20T15:54:13;10.40;;;9.40;;
19087;SDS011;9676;50.916;13.352;2023-12-20T15:57:03;9.97;;;9.17;;
19087;SDS011;9676;50.916;13.352;2023-12-20T15:59:52;10.13;;;9.30;;
19087;SDS011;9676;50.916;13.352;2023-12-20T16:02:43;10.60;;;9.60;;
19087;SDS011;9676;50.916;13.352;2023-12-20T16:05:32;10.20;;;9.30;;
19087;SDS011;9676;50.916;13.352;2023-12-20T16:08:22;10.40;;;9.50;;
19087;SDS011;9676;50.916;13.352;2023-12-20T16:11:11;10.20;;;9.30;;
19087;SDS011;9676;50.916;13.352;2023-12-20T16:14:01;10.40;;;9.50;;
19087;SDS011;9676;50.916;13.352;2023-12-20T16:16:50;10.07;;;9.17;;
19087;SDS011;9676;50.916;13.352;2023-12-20T16:19:41;9.90;;;9.10;;
19087;SDS011;9676;50.916;13.352;2023-12-20T16:22:31;9.97;;;9.17;;
19087;SDS011;9676;50.916;13.352;2023-12-20T16:25:20;9.93;;;9.07;;
19087;SDS011;9676;50.916;13.352;2023-12-20T16:28:11;10.77;;;9.87;;
19087;SDS011;9676;50.916;13.352;2023-12-20T16:31:00;10.07;;;9.17;;
19087;SDS011;9676;50.916;13.352;2023-12-20T16:33:50;10.00;;;9.20;;
19087;SDS011;9676;50.916;13.352;2023-12-20T16:36:51;10.33;;;9.43;;
19087;SDS011;9676;50.916;13.352;2023-12-20T16:39:42;10.20;;;9.30;;
19087;SDS011;9676;50.916;13.352;2023-12-20T16:42:31;9.63;;;8.93;;
19087;SDS011;9676;50.916;13.352;2023-12-20T16:45:21;10.00;;;9.20;;
19087;SDS011;9676;50.916;13.352;2023-12-20T16:48:11;10.10;;;9.23;;
19087;SDS011;9676;50.916;13.352;2023-12-20T16:51:00;10.90;;;9.80;;
19087;SDS011;9676;50.916;13.352;2023-12-20T16:53:51;10.80;;;9.80;;
19087;SDS011;9676;50.916;13.352;2023-12-20T16:56:40;10.40;;;9.50;;